KGGI

Grinnell Regional Airport

Grinnell, Iowa, USA
METAR KGGI 200055Z AUTO 20013KT 10SM CLR 04/M02 A2970 RMK AO2 T00411018
Observed Flight Rules
Jan-20 @ 00:55 UTC (22 minutes ago) Visual Flight Rules
Wind Visibility Clouds
200° at 13 knots 10 miles
  • Clear skies
Temperatures Readings
Current 4°C / 39°F
Dewpoint -2°C / 28°F
Humidity 65%
Altimeter 29.7" Hg
Pressure 1006 hPa
Elevation 307
METAR KGGI 200055Z AUTO 20013KT 10SM CLR 04/M02 A2970 RMK AO2 T00411018
Observed Flight Rules
Jan-20 @ 00:55 UTC
(22 minutes ago)
VFR
Wind Visibility
200° at 13 knots 10 miles
Clouds
  • Clear skies
Temperature Dewpoint
4°C / 39°F -2°C / 28°F
Humidity Altimeter Pressure
65% 29.7" Hg 1006 hPa